createdAt,value
2023-03-22T00:01:57.537Z,53.65
2023-03-22T00:04:23.840Z,53.36
2023-03-22T00:06:50.142Z,51.17
2023-03-22T00:09:16.467Z,50.71
2023-03-22T00:11:42.772Z,51.01
2023-03-22T00:14:09.066Z,51.69
2023-03-22T00:16:35.406Z,51.86
2023-03-22T00:19:01.799Z,50.80
2023-03-22T00:21:28.090Z,51.18
2023-03-22T00:23:54.443Z,51.25
2023-03-22T00:26:20.750Z,51.05
2023-03-22T00:28:47.049Z,52.28
2023-03-22T00:31:13.382Z,50.84
2023-03-22T00:33:39.708Z,51.18
2023-03-22T00:36:06.023Z,50.93
2023-03-22T00:38:41.721Z,51.72
2023-03-22T00:41:09.020Z,52.23
2023-03-22T00:43:35.337Z,53.33
2023-03-22T00:46:01.689Z,51.97
2023-03-22T00:48:28.096Z,52.27
2023-03-22T00:50:54.406Z,53.03
2023-03-22T00:53:20.711Z,53.27
2023-03-22T00:55:47.026Z,53.59
2023-03-22T00:58:13.354Z,53.07
2023-03-22T01:00:39.896Z,53.63
2023-03-22T01:03:06.520Z,53.69
2023-03-22T01:05:32.856Z,53.08
2023-03-22T01:07:59.159Z,52.95
2023-03-22T01:10:25.474Z,54.35
2023-03-22T01:12:51.809Z,54.23
2023-03-22T01:15:18.130Z,54.25
2023-03-22T01:17:44.437Z,55.82
2023-03-22T01:20:10.749Z,55.63
2023-03-22T01:22:37.064Z,54.26
2023-03-22T01:25:03.571Z,55.59
2023-03-22T01:27:29.951Z,55.10
2023-03-22T01:29:56.251Z,55.40
2023-03-22T01:32:22.551Z,54.73
2023-03-22T01:34:48.864Z,55.62
2023-03-22T01:37:15.163Z,54.21
2023-03-22T01:39:41.457Z,54.70
2023-03-22T01:42:07.772Z,54.75
2023-03-22T01:44:34.071Z,54.68
2023-03-22T01:47:00.380Z,54.71
2023-03-22T01:49:26.721Z,55.47
2023-03-22T01:51:53.025Z,55.97
2023-03-22T01:54:19.328Z,55.41
2023-03-22T01:56:45.642Z,56.96
2023-03-22T01:59:11.938Z,57.41
2023-03-22T02:01:38.242Z,57.72
2023-03-22T02:04:04.586Z,56.91
2023-03-22T02:06:30.882Z,55.93
2023-03-22T02:08:57.179Z,57.04
2023-03-22T02:11:23.492Z,56.81
2023-03-22T02:13:49.831Z,57.51
2023-03-22T02:16:16.223Z,57.66
2023-03-22T02:18:42.559Z,56.48
2023-03-22T02:21:08.861Z,56.96
2023-03-22T02:23:35.206Z,55.23
2023-03-22T02:26:01.541Z,55.00
2023-03-22T02:28:27.839Z,55.53
2023-03-22T02:30:54.159Z,55.07
2023-03-22T02:33:20.572Z,55.54
2023-03-22T02:35:46.922Z,56.13
2023-03-22T02:38:13.233Z,56.62
2023-03-22T02:40:39.740Z,55.34
2023-03-22T02:43:06.179Z,56.34
2023-03-22T02:45:32.489Z,55.98
2023-03-22T02:47:58.852Z,55.91
2023-03-22T02:50:25.172Z,55.67
2023-03-22T02:52:51.476Z,55.86
2023-03-22T02:55:17.796Z,55.61
2023-03-22T02:57:44.087Z,55.66
2023-03-22T03:00:10.388Z,55.97
2023-03-22T03:02:36.715Z,55.93
2023-03-22T03:05:03.062Z,55.06
2023-03-22T03:07:29.359Z,55.90
2023-03-22T03:09:55.674Z,56.19
2023-03-22T03:12:23.087Z,56.88
2023-03-22T03:14:49.391Z,56.68
2023-03-22T03:17:15.722Z,56.25
2023-03-22T03:19:42.006Z,55.95
2023-03-22T03:22:08.295Z,57.13
2023-03-22T03:24:34.610Z,56.29
2023-03-22T03:27:00.906Z,56.28
2023-03-22T03:29:27.205Z,55.71
2023-03-22T03:31:53.660Z,57.01
2023-03-22T03:34:20.000Z,57.65
2023-03-22T03:36:46.297Z,57.38
2023-03-22T03:39:12.666Z,59.02
2023-03-22T03:41:38.972Z,58.24
2023-03-22T03:44:05.274Z,59.28
2023-03-22T03:46:31.583Z,58.44
2023-03-22T03:48:57.881Z,57.94
2023-03-22T03:51:24.167Z,58.25
2023-03-22T03:53:50.487Z,58.40
2023-03-22T03:56:16.790Z,58.33
2023-03-22T03:58:43.103Z,57.72
2023-03-22T04:01:09.556Z,58.39
2023-03-22T04:03:35.852Z,59.33
2023-03-22T04:06:02.160Z,57.44
2023-03-22T04:08:28.516Z,56.73
2023-03-22T04:10:54.821Z,57.28
2023-03-22T04:13:21.111Z,57.39
2023-03-22T04:15:47.432Z,58.14
2023-03-22T04:18:13.726Z,58.57
2023-03-22T04:20:40.421Z,60.40
2023-03-22T04:23:10.885Z,60.33
2023-03-22T04:25:37.214Z,59.23
2023-03-22T04:28:03.508Z,58.13
2023-03-22T04:30:29.832Z,58.14
2023-03-22T04:32:56.133Z,57.91
2023-03-22T04:35:22.468Z,57.70
2023-03-22T04:37:48.958Z,58.91
2023-03-22T04:40:15.251Z,57.84
2023-03-22T04:42:41.559Z,58.30
2023-03-22T04:45:07.918Z,57.28
2023-03-22T04:47:34.216Z,57.91
2023-03-22T04:50:00.579Z,58.16
2023-03-22T04:52:26.909Z,56.60
2023-03-22T04:54:53.217Z,57.35
2023-03-22T04:57:19.514Z,58.39
2023-03-22T04:59:45.830Z,59.01
2023-03-22T05:02:12.132Z,59.73
2023-03-22T05:04:38.426Z,59.09
2023-03-22T05:07:04.754Z,59.83
2023-03-22T05:09:31.048Z,59.59
2023-03-22T05:11:57.343Z,59.41
2023-03-22T05:14:23.702Z,59.63
2023-03-22T05:16:50.052Z,59.77
2023-03-22T05:19:16.359Z,59.88
2023-03-22T05:21:42.676Z,60.09
2023-03-22T05:24:08.989Z,60.19
2023-03-22T05:26:35.292Z,60.80
2023-03-22T05:29:01.604Z,59.72
2023-03-22T05:31:27.921Z,59.90
2023-03-22T05:33:54.253Z,59.25
2023-03-22T05:36:20.571Z,58.78
2023-03-22T05:38:46.890Z,59.18
2023-03-22T05:41:13.196Z,60.04
2023-03-22T05:43:39.520Z,62.48
2023-03-22T05:46:05.826Z,61.21
2023-03-22T05:48:32.129Z,60.10
2023-03-22T05:50:58.482Z,60.73
2023-03-22T05:53:24.776Z,60.66
2023-03-22T05:55:51.071Z,60.62
2023-03-22T05:58:17.381Z,60.84
2023-03-22T06:00:43.680Z,59.80
2023-03-22T06:03:10.035Z,59.82
2023-03-22T06:05:36.380Z,60.02
2023-03-22T06:08:02.682Z,60.90
2023-03-22T06:10:29.022Z,59.97
2023-03-22T06:12:55.359Z,60.19
2023-03-22T06:15:21.709Z,60.00
2023-03-22T06:17:48.003Z,60.51
2023-03-22T06:20:14.327Z,60.47
2023-03-22T06:22:40.645Z,61.63
2023-03-22T06:25:06.958Z,60.48
2023-03-22T06:27:33.314Z,60.11
2023-03-22T06:29:59.617Z,61.20
2023-03-22T06:32:25.928Z,61.88
2023-03-22T06:34:52.239Z,62.90
2023-03-22T06:37:18.551Z,63.97
2023-03-22T06:39:44.860Z,63.66
2023-03-22T06:42:11.196Z,64.25
2023-03-22T06:44:37.498Z,62.58
2023-03-22T06:47:03.810Z,63.26
2023-03-22T06:49:30.127Z,64.18
2023-03-22T06:51:56.434Z,64.26
2023-03-22T06:54:22.751Z,65.06
2023-03-22T06:56:49.126Z,66.15
2023-03-22T06:59:15.425Z,65.71
2023-03-22T07:01:41.843Z,65.09
2023-03-22T07:04:08.242Z,64.23
2023-03-22T07:06:34.548Z,65.31
2023-03-22T07:09:00.873Z,64.84
2023-03-22T07:11:27.192Z,64.69
2023-03-22T07:13:53.488Z,66.17
2023-03-22T07:16:20.203Z,65.39
2023-03-22T07:18:46.629Z,64.51
2023-03-22T07:21:12.959Z,65.03
2023-03-22T07:23:39.284Z,65.05
2023-03-22T07:26:05.603Z,64.47
2023-03-22T07:28:31.915Z,64.23
2023-03-22T07:30:58.207Z,65.36
2023-03-22T07:33:24.550Z,64.59
2023-03-22T07:35:50.870Z,65.16
2023-03-22T07:38:17.187Z,64.73
2023-03-22T07:40:43.507Z,63.99
2023-03-22T07:43:09.819Z,62.22
2023-03-22T07:45:36.142Z,62.00
2023-03-22T07:48:02.553Z,63.10
2023-03-22T07:50:28.983Z,65.11
2023-03-22T07:52:55.318Z,63.04
2023-03-22T07:55:21.650Z,62.19
2023-03-22T07:57:47.947Z,61.65
2023-03-22T08:00:14.269Z,60.89
2023-03-22T08:02:40.674Z,60.64
2023-03-22T08:05:07.017Z,60.80
2023-03-22T08:07:33.318Z,59.27
2023-03-22T08:09:59.630Z,61.17
2023-03-22T08:12:25.922Z,59.33
2023-03-22T08:14:52.226Z,59.27
2023-03-22T08:17:18.541Z,58.55
2023-03-22T08:19:44.831Z,58.74
2023-03-22T08:22:11.129Z,59.15
2023-03-22T08:24:37.449Z,57.78
2023-03-22T08:27:03.751Z,58.18
2023-03-22T08:29:30.096Z,58.13
2023-03-22T08:31:56.467Z,55.91
2023-03-22T08:34:22.796Z,54.25
2023-03-22T08:36:49.106Z,53.71
2023-03-22T08:39:15.437Z,53.95
2023-03-22T08:41:41.733Z,51.99
2023-03-22T08:44:08.044Z,50.82
2023-03-22T08:46:34.452Z,50.78
2023-03-22T08:49:00.808Z,51.90
2023-03-22T08:51:27.106Z,51.46
2023-03-22T08:53:53.421Z,51.68
2023-03-22T08:56:19.712Z,51.63
2023-03-22T08:58:46.008Z,53.00
2023-03-22T09:01:12.445Z,50.21
2023-03-22T09:03:38.869Z,51.51
2023-03-22T09:06:05.187Z,47.77
2023-03-22T09:08:31.550Z,51.14
2023-03-22T09:10:57.846Z,50.81
2023-03-22T09:13:24.238Z,48.76
2023-03-22T09:15:50.606Z,49.04
2023-03-22T09:18:16.920Z,47.22
2023-03-22T09:20:43.550Z,48.08
2023-03-22T09:23:09.998Z,47.66
2023-03-22T09:25:36.299Z,47.81
2023-03-22T09:28:02.647Z,47.81
2023-03-22T09:30:28.986Z,47.41
2023-03-22T09:32:55.306Z,48.37
2023-03-22T09:35:21.672Z,46.55
2023-03-22T09:37:48.024Z,46.65
2023-03-22T09:40:14.322Z,46.95
2023-03-22T09:42:40.620Z,46.74
2023-03-22T09:45:06.946Z,47.60
2023-03-22T09:47:43.960Z,48.16
2023-03-22T09:50:11.339Z,45.44
2023-03-22T09:52:37.645Z,46.10
2023-03-22T09:55:03.951Z,47.39
2023-03-22T09:57:30.281Z,45.87
2023-03-22T09:59:56.577Z,46.83
2023-03-22T10:02:22.944Z,45.99
2023-03-22T10:04:49.323Z,46.52
2023-03-22T10:07:15.628Z,46.87
2023-03-22T10:09:41.941Z,44.94
2023-03-22T10:12:08.306Z,43.61
2023-03-22T10:14:34.607Z,45.49
2023-03-22T10:17:00.920Z,42.56
2023-03-22T10:19:27.245Z,42.35
2023-03-22T10:21:53.566Z,43.08
2023-03-22T10:24:19.861Z,44.45
2023-03-22T10:26:46.206Z,41.78
2023-03-22T10:29:12.514Z,43.48
2023-03-22T10:31:38.882Z,44.31
2023-03-22T10:34:05.224Z,43.55
2023-03-22T10:36:31.522Z,44.32
2023-03-22T10:38:57.840Z,44.04
2023-03-22T10:41:24.225Z,43.63
2023-03-22T10:43:50.544Z,43.08
2023-03-22T10:46:16.872Z,43.10
2023-03-22T10:48:43.201Z,44.26
2023-03-22T10:51:09.505Z,41.42
2023-03-22T10:53:35.926Z,41.87
2023-03-22T10:56:02.275Z,42.81
2023-03-22T10:58:28.717Z,41.10
2023-03-22T11:00:55.121Z,43.48
2023-03-22T11:03:21.511Z,43.76
2023-03-22T11:05:47.821Z,42.83
2023-03-22T11:08:14.253Z,44.39
2023-03-22T11:10:40.601Z,41.40
2023-03-22T11:13:06.919Z,44.35
2023-03-22T11:15:33.220Z,41.25
2023-03-22T11:17:59.585Z,42.46
2023-03-22T11:20:25.946Z,40.94
2023-03-22T11:22:52.311Z,40.78
2023-03-22T11:25:18.679Z,39.84
2023-03-22T11:27:44.974Z,42.01
2023-03-22T11:30:11.288Z,38.50
2023-03-22T11:32:37.673Z,39.12
2023-03-22T11:35:04.017Z,39.87
2023-03-22T11:37:30.306Z,39.88
2023-03-22T11:39:56.643Z,41.68
2023-03-22T11:42:22.962Z,40.58
2023-03-22T11:44:49.323Z,39.51
2023-03-22T11:47:15.666Z,38.37
2023-03-22T11:49:41.955Z,38.67
2023-03-22T11:52:08.252Z,38.75
2023-03-22T11:54:34.584Z,40.80
2023-03-22T11:57:00.895Z,39.11
2023-03-22T11:59:27.196Z,39.45
2023-03-22T12:01:53.523Z,38.42
2023-03-22T12:04:19.845Z,39.77
2023-03-22T12:06:46.234Z,38.09
2023-03-22T12:09:12.552Z,39.09
2023-03-22T12:11:38.857Z,36.74
2023-03-22T12:14:05.170Z,35.94
2023-03-22T12:16:31.654Z,35.63
2023-03-22T12:18:58.006Z,35.86
2023-03-22T12:21:24.305Z,35.62
2023-03-22T12:23:50.658Z,36.14
2023-03-22T12:26:16.952Z,38.92
2023-03-22T12:28:43.300Z,37.60
2023-03-22T12:31:09.657Z,36.74
2023-03-22T12:33:36.131Z,36.02
2023-03-22T12:36:02.477Z,36.25
2023-03-22T12:38:28.850Z,36.26
2023-03-22T12:40:55.149Z,34.89
2023-03-22T12:43:21.453Z,38.69
2023-03-22T12:45:47.811Z,34.67
2023-03-22T12:48:14.198Z,33.82
2023-03-22T12:50:40.740Z,35.22
2023-03-22T12:53:07.164Z,34.93
2023-03-22T12:55:33.457Z,34.98
2023-03-22T12:57:59.756Z,31.65
2023-03-22T13:00:26.098Z,31.77
2023-03-22T13:02:52.490Z,31.66
2023-03-22T13:05:18.848Z,32.18
2023-03-22T13:07:45.202Z,31.28
2023-03-22T13:10:11.506Z,29.81
2023-03-22T13:12:37.856Z,30.47
2023-03-22T13:15:04.197Z,31.61
2023-03-22T13:17:30.521Z,30.90
2023-03-22T13:19:56.830Z,30.30
2023-03-22T13:22:23.134Z,31.01
2023-03-22T13:24:49.426Z,31.59
2023-03-22T13:27:15.710Z,32.27
2023-03-22T13:29:42.064Z,32.80
2023-03-22T13:32:08.390Z,31.90
2023-03-22T13:34:34.689Z,32.11
2023-03-22T13:37:00.998Z,32.87
2023-03-22T13:39:27.295Z,32.28
2023-03-22T13:41:53.573Z,32.99
2023-03-22T13:44:19.909Z,32.68
2023-03-22T13:46:46.314Z,33.28
2023-03-22T13:49:12.756Z,33.58
2023-03-22T13:51:39.132Z,33.00
2023-03-22T13:54:05.440Z,33.97
2023-03-22T13:56:31.741Z,34.20
2023-03-22T13:58:58.083Z,34.47
2023-03-22T14:01:24.391Z,36.15
2023-03-22T14:03:50.761Z,34.25
2023-03-22T14:06:17.128Z,33.37
2023-03-22T14:08:43.454Z,34.30
2023-03-22T14:11:09.757Z,34.17
2023-03-22T14:13:36.090Z,33.49
2023-03-22T14:16:02.479Z,34.49
2023-03-22T14:18:28.805Z,33.99
2023-03-22T14:20:55.121Z,34.41
